sensor_id;sensor_type;location;lat;lon;timestamp;temperature;humidity
66610;DHT22;53468;48.276;14.416;2022-10-28T05:16:43;9.80;99.90
66610;DHT22;53468;48.276;14.416;2022-10-28T05:22:16;9.80;99.90
66610;DHT22;53468;48.276;14.416;2022-10-28T05:27:48;9.80;99.90
66610;DHT22;53468;48.276;14.416;2022-10-28T05:33:23;9.80;99.90
66610;DHT22;53468;48.276;14.416;2022-10-28T05:38:56;9.90;99.90
66610;DHT22;53468;48.276;14.416;2022-10-28T05:44:28;9.90;99.90
66610;DHT22;53468;48.276;14.416;2022-10-28T05:50:03;10.00;99.90
66610;DHT22;53468;48.276;14.416;2022-10-28T05:55:36;10.00;99.90
66610;DHT22;53468;48.276;14.416;2022-10-28T06:01:08;10.00;99.90
66610;DHT22;53468;48.276;14.416;2022-10-28T06:06:42;10.20;99.90
66610;DHT22;53468;48.276;14.416;2022-10-28T06:12:15;10.30;99.90
66610;DHT22;53468;48.276;14.416;2022-10-28T06:17:47;10.40;99.90
66610;DHT22;53468;48.276;14.416;2022-10-28T06:23:21;10.40;99.90
66610;DHT22;53468;48.276;14.416;2022-10-28T06:28:54;10.50;99.90
66610;DHT22;53468;48.276;14.416;2022-10-28T06:34:26;10.60;99.90
66610;DHT22;53468;48.276;14.416;2022-10-28T06:40:00;10.60;99.90
66610;DHT22;53468;48.276;14.416;2022-10-28T06:45:34;10.70;99.90
66610;DHT22;53468;48.276;14.416;2022-10-28T06:51:06;10.80;99.90
66610;DHT22;53468;48.276;14.416;2022-10-28T06:56:40;10.80;99.90
66610;DHT22;53468;48.276;14.416;2022-10-28T07:02:14;10.90;99.90
66610;DHT22;53468;48.276;14.416;2022-10-28T07:07:47;10.90;99.90
66610;DHT22;53468;48.276;14.416;2022-10-28T07:13:20;11.00;99.90
66610;DHT22;53468;48.276;14.416;2022-10-28T07:18:52;11.10;99.90
66610;DHT22;53468;48.276;14.416;2022-10-28T07:24:25;11.20;99.90
66610;DHT22;53468;48.276;14.416;2022-10-28T07:29:59;11.30;99.90
66610;DHT22;53468;48.276;14.416;2022-10-28T07:35:32;11.30;99.90
66610;DHT22;53468;48.276;14.416;2022-10-28T07:41:05;11.40;99.90
66610;DHT22;53468;48.276;14.416;2022-10-28T07:46:39;11.50;99.90
66610;DHT22;53468;48.276;14.416;2022-10-28T07:52:11;11.60;99.90
66610;DHT22;53468;48.276;14.416;2022-10-28T07:57:43;11.80;99.90
66610;DHT22;53468;48.276;14.416;2022-10-28T08:03:17;11.80;99.90
66610;DHT22;53468;48.276;14.416;2022-10-28T08:08:53;11.90;99.90
66610;DHT22;53468;48.276;14.416;2022-10-28T08:14:25;11.80;99.90
66610;DHT22;53468;48.276;14.416;2022-10-28T08:19:59;12.00;99.90
66610;DHT22;53468;48.276;14.416;2022-10-28T08:25:31;12.10;99.90
66610;DHT22;53468;48.276;14.416;2022-10-28T08:31:04;12.00;99.90
66610;DHT22;53468;48.276;14.416;2022-10-28T08:36:39;12.20;99.90
66610;DHT22;53468;48.276;14.416;2022-10-28T08:42:23;12.20;99.90
66610;DHT22;53468;48.276;14.416;2022-10-28T08:48:08;12.20;99.90
66610;DHT22;53468;48.276;14.416;2022-10-28T08:54:05;12.20;99.90
66610;DHT22;53468;48.276;14.416;2022-10-28T08:59:58;12.20;99.90
66610;DHT22;53468;48.276;14.416;2022-10-28T09:05:33;12.30;99.90
66610;DHT22;53468;48.276;14.416;2022-10-28T09:17:12;12.20;99.90
66610;DHT22;53468;48.276;14.416;2022-10-28T09:23:19;12.50;99.90
66610;DHT22;53468;48.276;14.416;2022-10-28T09:42:07;13.00;99.90
66610;DHT22;53468;48.276;14.416;2022-10-28T09:48:13;13.20;99.90
66610;DHT22;53468;48.276;14.416;2022-10-28T09:54:17;13.30;99.90
66610;DHT22;53468;48.276;14.416;2022-10-28T10:44:35;13.80;99.90
66610;DHT22;53468;48.276;14.416;2022-10-28T10:50:26;14.00;99.90
66610;DHT22;53468;48.276;14.416;2022-10-28T10:56:23;13.70;99.90
66610;DHT22;53468;48.276;14.416;2022-10-28T11:08:41;14.00;99.90
66610;DHT22;53468;48.276;14.416;2022-10-28T11:14:20;14.20;99.90
66610;DHT22;53468;48.276;14.416;2022-10-28T11:20:00;14.30;99.90
66610;DHT22;53468;48.276;14.416;2022-10-28T11:45:15;14.20;99.90
66610;DHT22;53468;48.276;14.416;2022-10-28T11:51:40;14.40;99.90
66610;DHT22;53468;48.276;14.416;2022-10-28T12:23:47;14.60;99.90
66610;DHT22;53468;48.276;14.416;2022-10-28T16:10:51;12.90;99.90
66610;DHT22;53468;48.276;14.416;2022-10-28T16:17:14;12.70;99.90
66610;DHT22;53468;48.276;14.416;2022-10-28T16:23:01;12.60;99.90
66610;DHT22;53468;48.276;14.416;2022-10-28T16:29:10;12.40;99.90
66610;DHT22;53468;48.276;14.416;2022-10-28T16:36:00;12.30;99.90
66610;DHT22;53468;48.276;14.416;2022-10-28T16:55:20;11.90;99.90
66610;DHT22;53468;48.276;14.416;2022-10-28T17:01:40;11.80;99.90
66610;DHT22;53468;48.276;14.416;2022-10-28T17:07:53;11.60;99.90
66610;DHT22;53468;48.276;14.416;2022-10-28T17:46:08;11.20;99.90
66610;DHT22;53468;48.276;14.416;2022-10-28T18:56:50;11.10;99.90
66610;DHT22;53468;48.276;14.416;2022-10-28T19:03:05;11.10;99.90
66610;DHT22;53468;48.276;14.416;2022-10-28T19:09:14;11.20;99.90
66610;DHT22;53468;48.276;14.416;2022-10-28T21:09:27;11.40;99.90
66610;DHT22;53468;48.276;14.416;2022-10-28T21:22:38;11.40;99.90
66610;DHT22;53468;48.276;14.416;2022-10-28T22:02:13;11.50;99.90
66610;DHT22;53468;48.276;14.416;2022-10-28T22:08:19;11.60;99.90
66610;DHT22;53468;48.276;14.416;2022-10-28T22:34:17;11.70;99.90
66610;DHT22;53468;48.276;14.416;2022-10-28T22:40:44;11.70;99.90
66610;DHT22;53468;48.276;14.416;2022-10-28T23:06:50;11.60;99.90
66610;DHT22;53468;48.276;14.416;2022-10-28T23:13:32;11.70;99.90
66610;DHT22;53468;48.276;14.416;2022-10-28T23:20:09;11.60;99.90
66610;DHT22;53468;48.276;14.416;2022-10-28T23:26:16;11.70;99.90
66610;DHT22;53468;48.276;14.416;2022-10-28T23:32:24;11.70;99.90
66610;DHT22;53468;48.276;14.416;2022-10-28T23:38:55;11.60;99.90
66610;DHT22;53468;48.276;14.416;2022-10-28T23:45:19;11.60;99.90
66610;DHT22;53468;48.276;14.416;2022-10-28T23:51:42;11.60;99.90
66610;DHT22;53468;48.276;14.416;2022-10-28T23:57:57;11.60;99.90
